Time;durP1;ratioP1;P1;durP2;ratioP2;P2;SDS_P1;SDS_P2;PMS_P1;PMS_P2;Temp;Humidity;BMP_temperature;BMP_pressure;BME280_temperature;BME280_humidity;BME280_pressure;Samples;Min_cycle;Max_cycle;Signal;HPM_P1;HPM_P2
2023/10/09 00:02:53;;;;;;;;;;;13.70;99.90;;;;;;5038906;28;25095;-62
2023/10/09 00:05:38;;;;;;;;;;;13.70;99.90;;;;;;5040210;28;25124;-59
2023/10/09 00:08:04;;;;;;;;;;;13.70;99.90;;;;;;5037576;28;25134;-61
2023/10/09 00:10:37;;;;;;;;;;;13.70;99.90;;;;;;5039156;28;25083;-60
2023/10/09 00:13:02;;;;;;;;;;;13.70;99.90;;;;;;5037450;28;25099;-60
2023/10/09 00:15:32;;;;;;;;;;;13.60;99.90;;;;;;5039893;28;25124;-61
2023/10/09 00:17:58;;;;;;;;;;;14.20;99.90;;;;;;5038907;28;25095;-60
2023/10/09 00:20:37;;;;;;;;;;;14.10;99.90;;;;;;5038258;28;25069;-61
2023/10/09 00:23:04;;;;;;;;;;;13.70;99.90;;;;;;5038957;28;25069;-61
2023/10/09 00:25:30;;;;;;;;;;;13.50;99.90;;;;;;5038149;28;25166;-61
2023/10/09 00:27:59;;;;;;;;;;;13.60;99.90;;;;;;5038367;28;25115;-60
2023/10/09 00:30:29;;;;;;;;;;;13.60;99.90;;;;;;5039333;28;25058;-61
2023/10/09 00:38:32;;;;;;;;;;;13.60;99.90;;;;;;5000507;28;25146;-61
2023/10/09 00:41:04;;;;;;;;;;;13.60;99.90;;;;;;5036601;28;25098;-61
2023/10/09 00:43:29;;;;;;;;;;;13.60;99.90;;;;;;5042590;28;25148;-60
2023/10/09 00:45:56;;;;;;;;;;;13.60;99.90;;;;;;5043111;28;20404;-61
2023/10/09 00:48:30;;;;;;;;;;;13.60;99.90;;;;;;5043036;28;25080;-61
2023/10/09 00:51:00;;;;;;;;;;;13.60;99.90;;;;;;5041299;28;25112;-61
2023/10/09 00:53:33;;;;;;;;;;;13.60;99.90;;;;;;5041592;28;25120;-60
2023/10/09 00:58:46;;;;;;;;;;;13.60;99.90;;;;;;5035849;28;25061;-62
2023/10/09 01:01:16;;;;;;;;;;;13.60;99.90;;;;;;5041649;28;25065;-60
2023/10/09 01:03:42;;;;;;;;;;;13.60;99.90;;;;;;5042841;28;25114;-62
2023/10/09 01:11:09;;;;;;;;;;;13.60;99.90;;;;;;5042127;28;25085;-61
2023/10/09 01:13:41;;;;;;;;;;;13.70;99.90;;;;;;5042397;28;25122;-60
2023/10/09 01:16:13;;;;;;;;;;;13.70;99.90;;;;;;5042102;28;25068;-60
2023/10/09 01:18:42;;;;;;;;;;;13.70;99.90;;;;;;5042674;28;25073;-60
2023/10/09 01:21:12;;;;;;;;;;;14.00;99.90;;;;;;5041852;28;25072;-60
2023/10/09 01:23:44;;;;;;;;;;;13.60;99.90;;;;;;5041810;28;25072;-60
2023/10/09 01:26:10;;;;;;;;;;;13.70;99.90;;;;;;5040334;28;25059;-60
2023/10/09 01:28:35;;;;;;;;;;;14.20;99.90;;;;;;5042693;28;26064;-61
2023/10/09 01:31:01;;;;;;;;;;;13.60;99.90;;;;;;5041526;28;25141;-60
2023/10/09 01:33:27;;;;;;;;;;;13.50;99.90;;;;;;5042499;28;25068;-60
2023/10/09 01:35:59;;;;;;;;;;;13.60;99.90;;;;;;5040981;28;25063;-60
2023/10/09 01:38:40;;;;;;;;;;;13.70;99.90;;;;;;5041021;28;25151;-60
2023/10/09 01:41:08;;;;;;;;;;;13.50;99.90;;;;;;5041097;28;25153;-60
2023/10/09 01:43:34;;;;;;;;;;;13.60;99.90;;;;;;5042366;28;25064;-61
2023/10/09 01:46:01;;;;;;;;;;;14.20;99.90;;;;;;5041438;28;25079;-61
2023/10/09 01:48:26;;;;;;;;;;;13.70;99.90;;;;;;5040908;28;25056;-60
2023/10/09 01:50:53;;;;;;;;;;;13.70;99.90;;;;;;5041855;28;25054;-61
2023/10/09 01:53:22;;;;;;;;;;;13.70;99.90;;;;;;5040793;28;25141;-61
2023/10/09 01:55:47;;;;;;;;;;;13.30;99.90;;;;;;5041663;28;25163;-60
2023/10/09 01:58:17;;;;;;;;;;;13.70;99.90;;;;;;5040892;28;25103;-61
2023/10/09 02:00:48;;;;;;;;;;;13.70;99.90;;;;;;5040412;28;25072;-62
2023/10/09 02:03:15;;;;;;;;;;;13.70;99.90;;;;;;5042304;28;25168;-60
2023/10/09 02:05:43;;;;;;;;;;;14.00;99.90;;;;;;5042489;28;25138;-61
2023/10/09 02:08:10;;;;;;;;;;;13.70;99.90;;;;;;5042593;28;25148;-60
2023/10/09 02:10:37;;;;;;;;;;;13.60;99.90;;;;;;5041359;28;25116;-61
2023/10/09 02:13:09;;;;;;;;;;;13.80;99.90;;;;;;5041267;28;25067;-61
2023/10/09 02:21:12;;;;;;;;;;;13.80;99.90;;;;;;5044089;28;20994;-61
2023/10/09 02:26:09;;;;;;;;;;;13.80;99.90;;;;;;5042424;28;25099;-61
2023/10/09 02:28:35;;;;;;;;;;;13.80;99.90;;;;;;5042430;28;20406;-61
2023/10/09 02:31:09;;;;;;;;;;;13.80;99.90;;;;;;5042795;28;25086;-61
2023/10/09 02:33:36;;;;;;;;;;;14.30;99.90;;;;;;5043048;28;20406;-60
2023/10/09 02:36:05;;;;;;;;;;;13.70;99.90;;;;;;5042244;28;25120;-60
2023/10/09 02:38:34;;;;;;;;;;;13.70;99.90;;;;;;5041321;28;25073;-60
2023/10/09 02:43:28;;;;;;;;;;;13.80;99.90;;;;;;5042114;28;25105;-59
2023/10/09 02:45:53;;;;;;;;;;;13.80;99.90;;;;;;5042412;28;25196;-61
2023/10/09 02:48:28;;;;;;;;;;;13.80;99.90;;;;;;5043341;28;20405;-60
2023/10/09 02:50:54;;;;;;;;;;;13.80;99.90;;;;;;5042647;28;20401;-60
2023/10/09 02:53:28;;;;;;;;;;;13.80;99.90;;;;;;5043660;28;20695;-61
2023/10/09 02:56:12;;;;;;;;;;;13.80;99.90;;;;;;5041218;28;25152;-60
2023/10/09 02:58:39;;;;;;;;;;;13.80;99.90;;;;;;5034447;28;25086;-60
2023/10/09 03:01:09;;;;;;;;;;;13.70;99.90;;;;;;5042355;28;20390;-59
2023/10/09 03:03:35;;;;;;;;;;;13.70;99.90;;;;;;5041181;28;25069;-60
2023/10/09 03:06:03;;;;;;;;;;;14.10;99.90;;;;;;5042611;28;20422;-59
2023/10/09 03:08:29;;;;;;;;;;;13.80;99.90;;;;;;5042602;28;20383;-60
2023/10/09 03:10:56;;;;;;;;;;;13.70;99.90;;;;;;5040809;28;25126;-60
2023/10/09 03:13:22;;;;;;;;;;;13.70;99.90;;;;;;5042213;28;25069;-60
2023/10/09 03:15:48;;;;;;;;;;;13.80;99.90;;;;;;5042274;28;25068;-60
2023/10/09 03:18:14;;;;;;;;;;;13.80;99.90;;;;;;5041859;28;25148;-60
2023/10/09 03:20:40;;;;;;;;;;;13.80;99.90;;;;;;5040798;28;25061;-59
2023/10/09 03:23:07;;;;;;;;;;;13.70;99.90;;;;;;5041378;28;20425;-61
2023/10/09 03:25:33;;;;;;;;;;;13.60;99.90;;;;;;5041172;28;25088;-60
2023/10/09 03:27:58;;;;;;;;;;;14.60;99.90;;;;;;5039126;28;25057;-61
2023/10/09 03:30:24;;;;;;;;;;;14.00;99.90;;;;;;5039714;28;25145;-60
2023/10/09 03:32:53;;;;;;;;;;;13.60;99.90;;;;;;5039218;28;25087;-60
2023/10/09 03:35:27;;;;;;;;;;;15.00;99.90;;;;;;5041621;28;25153;-60
2023/10/09 03:38:00;;;;;;;;;;;13.60;99.90;;;;;;5040160;28;25168;-60
2023/10/09 03:40:25;;;;;;;;;;;13.60;99.90;;;;;;5041405;28;25109;-61
2023/10/09 03:42:51;;;;;;;;;;;13.70;99.90;;;;;;5039500;28;25167;-63
2023/10/09 03:45:26;;;;;;;;;;;14.10;99.90;;;;;;5041995;28;25094;-61
2023/10/09 03:47:57;;;;;;;;;;;13.70;99.90;;;;;;5041331;28;20412;-64
2023/10/09 03:50:43;;;;;;;;;;;13.60;99.90;;;;;;5041881;28;20409;-60
2023/10/09 03:53:11;;;;;;;;;;;14.80;99.90;;;;;;5041741;28;25134;-61
2023/10/09 03:55:39;;;;;;;;;;;13.70;99.90;;;;;;5039277;28;25131;-60
2023/10/09 03:58:11;;;;;;;;;;;13.60;99.90;;;;;;5037604;28;20454;-61
2023/10/09 04:00:49;;;;;;;;;;;13.60;99.90;;;;;;5041947;28;25103;-61
2023/10/09 04:03:15;;;;;;;;;;;13.80;99.90;;;;;;5043737;28;20099;-59
2023/10/09 04:05:42;;;;;;;;;;;13.60;99.90;;;;;;5038784;28;25124;-60
2023/10/09 04:08:13;;;;;;;;;;;13.60;99.90;;;;;;5038639;28;25082;-61
2023/10/09 04:10:51;;;;;;;;;;;13.70;99.90;;;;;;5036074;28;25126;-59
2023/10/09 04:13:18;;;;;;;;;;;13.90;99.90;;;;;;5038928;28;25085;-60
2023/10/09 04:15:44;;;;;;;;;;;13.70;99.90;;;;;;5039174;28;25078;-60
2023/10/09 04:18:16;;;;;;;;;;;14.10;99.90;;;;;;5038480;28;25076;-59
2023/10/09 04:23:16;;;;;;;;;;;13.80;99.90;;;;;;5038445;28;25153;-60
2023/10/09 04:25:41;;;;;;;;;;;13.90;99.90;;;;;;5037824;28;25094;-60
2023/10/09 04:28:21;;;;;;;;;;;13.90;99.90;;;;;;5037646;28;25061;-60
2023/10/09 04:30:53;;;;;;;;;;;13.90;99.90;;;;;;5038397;28;25069;-61
2023/10/09 04:33:34;;;;;;;;;;;13.90;99.90;;;;;;5038892;28;25074;-61
2023/10/09 04:38:55;;;;;;;;;;;14.10;99.90;;;;;;5038790;28;25057;-61
2023/10/09 04:41:27;;;;;;;;;;;14.20;99.90;;;;;;5037897;28;25123;-61
2023/10/09 04:47:18;;;;;;;;;;;14.30;99.90;;;;;;5037936;28;25124;-60
2023/10/09 04:49:45;;;;;;;;;;;14.70;99.90;;;;;;5038132;28;25054;-60
2023/10/09 04:52:19;;;;;;;;;;;14.30;99.90;;;;;;5038501;28;25087;-61
2023/10/09 04:57:30;;;;;;;;;;;14.60;99.90;;;;;;5037415;28;25078;-59
2023/10/09 04:59:58;;;;;;;;;;;14.60;99.90;;;;;;5037103;28;25086;-60
2023/10/09 05:02:24;;;;;;;;;;;14.70;99.90;;;;;;5038074;28;25100;-60
2023/10/09 05:05:15;;;;;;;;;;;14.70;99.90;;;;;;5036825;28;25149;-60
2023/10/09 05:10:24;;;;;;;;;;;14.70;99.90;;;;;;5038907;28;25139;-61
2023/10/09 05:12:56;;;;;;;;;;;14.70;99.90;;;;;;5038075;28;25081;-60
2023/10/09 05:15:29;;;;;;;;;;;15.00;99.90;;;;;;5036673;28;25133;-61
2023/10/09 05:18:09;;;;;;;;;;;14.70;99.90;;;;;;5038030;28;25078;-61
2023/10/09 05:23:25;;;;;;;;;;;14.90;99.90;;;;;;5039820;28;25126;-60
2023/10/09 05:25:55;;;;;;;;;;;14.90;99.90;;;;;;5040070;28;25079;-62
2023/10/09 05:28:48;;;;;;;;;;;14.90;99.90;;;;;;5042234;28;25076;-61
2023/10/09 05:31:44;;;;;;;;;;;15.00;99.90;;;;;;5041013;28;25144;-61
2023/10/09 05:34:01;;;;;;;;;;;14.80;99.90;;;;;;5041500;28;25150;-60
2023/10/09 05:38:58;;;;;;;;;;;15.40;99.90;;;;;;5041211;28;25088;-61
2023/10/09 05:49:54;;;;;;;;;;;15.20;99.90;;;;;;5041319;28;25063;-61
2023/10/09 06:11:38;;;;;;;;;;;15.20;99.90;;;;;;5040551;28;25081;-61
2023/10/09 06:19:12;;;;;;;;;;;15.20;99.90;;;;;;5041087;28;25068;-61
2023/10/09 06:24:41;;;;;;;;;;;15.50;99.90;;;;;;5040974;28;25073;-61
2023/10/09 06:29:36;;;;;;;;;;;15.30;99.90;;;;;;5040499;28;25150;-60
2023/10/09 06:34:45;;;;;;;;;;;15.30;99.90;;;;;;5040209;28;25056;-60
2023/10/09 06:37:34;;;;;;;;;;;15.30;99.90;;;;;;5039907;28;25077;-61
2023/10/09 06:47:44;;;;;;;;;;;15.40;99.90;;;;;;5040263;28;25060;-60
2023/10/09 06:55:48;;;;;;;;;;;15.50;99.90;;;;;;5039050;28;25112;-59
2023/10/09 06:58:23;;;;;;;;;;;15.50;99.90;;;;;;5036983;28;25056;-61
2023/10/09 07:00:54;;;;;;;;;;;15.50;99.90;;;;;;5039164;28;25083;-60
2023/10/09 07:03:29;;;;;;;;;;;15.50;99.90;;;;;;5039861;28;25078;-61
2023/10/09 07:06:09;;;;;;;;;;;15.60;99.90;;;;;;5039682;28;25090;-59
2023/10/09 07:08:38;;;;;;;;;;;15.50;99.90;;;;;;5029340;28;25082;-59
2023/10/09 07:11:56;;;;;;;;;;;15.60;99.90;;;;;;5037287;28;25093;-59
2023/10/09 07:14:32;;;;;;;;;;;15.60;99.90;;;;;;5039644;28;25114;-59
2023/10/09 07:22:16;;;;;;;;;;;15.70;99.90;;;;;;5039504;28;25110;-60
2023/10/09 07:24:49;;;;;;;;;;;15.70;99.90;;;;;;5038262;28;25119;-60
2023/10/09 07:27:43;;;;;;;;;;;15.70;99.90;;;;;;5037608;28;25074;-60
2023/10/09 07:30:35;;;;;;;;;;;15.70;99.90;;;;;;5034095;28;25126;-61
2023/10/09 07:32:54;;;;;;;;;;;15.80;99.90;;;;;;5038853;28;25143;-60
2023/10/09 07:38:09;;;;;;;;;;;15.80;99.90;;;;;;5038339;28;25053;-60
2023/10/09 07:40:54;;;;;;;;;;;15.80;99.90;;;;;;5038352;28;25102;-60
2023/10/09 07:43:25;;;;;;;;;;;15.80;99.90;;;;;;5038091;28;25118;-60
2023/10/09 07:48:25;;;;;;;;;;;15.40;99.90;;;;;;5039452;28;25166;-59
2023/10/09 07:50:57;;;;;;;;;;;15.80;99.90;;;;;;5040194;28;25072;-61
2023/10/09 07:53:26;;;;;;;;;;;15.80;99.90;;;;;;5040415;28;25065;-60
2023/10/09 07:56:06;;;;;;;;;;;15.90;99.90;;;;;;5038218;28;25079;-60
2023/10/09 07:58:33;;;;;;;;;;;18.00;99.90;;;;;;5039510;28;25140;-61
2023/10/09 08:01:07;;;;;;;;;;;15.90;99.90;;;;;;5039579;28;25118;-59
2023/10/09 08:03:36;;;;;;;;;;;15.90;99.90;;;;;;5037531;28;25115;-61
2023/10/09 08:16:47;;;;;;;;;;;16.00;99.90;;;;;;5041047;28;25152;-60
2023/10/09 08:24:41;;;;;;;;;;;16.10;99.90;;;;;;5039106;28;25072;-60
2023/10/09 08:30:12;;;;;;;;;;;16.50;99.90;;;;;;5035876;28;25143;-63
2023/10/09 08:32:42;;;;;;;;;;;16.20;99.90;;;;;;5034593;28;25061;-60
2023/10/09 08:35:29;;;;;;;;;;;16.10;99.90;;;;;;5034320;28;25085;-60
2023/10/09 08:38:07;;;;;;;;;;;16.10;99.90;;;;;;5035880;28;25068;-59
2023/10/09 08:40:37;;;;;;;;;;;16.10;99.90;;;;;;5034852;28;25105;-60
2023/10/09 08:43:08;;;;;;;;;;;16.20;99.90;;;;;;5035887;28;25118;-59
2023/10/09 08:45:39;;;;;;;;;;;16.30;99.90;;;;;;5034663;28;25106;-61
2023/10/09 08:48:08;;;;;;;;;;;16.20;99.90;;;;;;5036294;28;25081;-60
2023/10/09 08:50:35;;;;;;;;;;;16.20;99.90;;;;;;5035771;28;25075;-60
2023/10/09 08:53:03;;;;;;;;;;;16.20;99.90;;;;;;5034629;28;25157;-59
2023/10/09 08:55:28;;;;;;;;;;;16.20;99.90;;;;;;5033427;28;25118;-60
2023/10/09 08:57:57;;;;;;;;;;;16.20;99.90;;;;;;5038923;28;25099;-60
2023/10/09 09:00:25;;;;;;;;;;;16.30;99.90;;;;;;5040415;28;25060;-57
2023/10/09 09:02:53;;;;;;;83.78;22.63;;;16.30;99.90;;;;;;5043993;28;19971;-57
2023/10/09 09:05:20;;;;;;;;;;;16.20;99.90;;;;;;5043111;28;20123;-62
2023/10/09 09:07:46;;;;;;;;;;;16.20;99.90;;;;;;5038503;28;25105;-57
2023/10/09 09:10:17;;;;;;;;;;;16.30;99.90;;;;;;5034942;28;25100;-57
2023/10/09 09:12:43;;;;;;;;;;;16.30;99.90;;;;;;5038541;28;25128;-58
2023/10/09 09:15:26;;;;;;;;;;;16.30;99.90;;;;;;5037359;28;25111;-58
2023/10/09 09:18:02;;;;;;;;;;;16.30;99.90;;;;;;5036280;28;25157;-57
2023/10/09 09:20:34;;;;;;;;;;;16.50;99.90;;;;;;5037132;28;25074;-57
2023/10/09 09:23:04;;;;;;;;;;;16.30;99.90;;;;;;5035115;28;25115;-57
2023/10/09 09:25:44;;;;;;;;;;;16.30;99.90;;;;;;5037040;28;25072;-57
2023/10/09 09:28:12;;;;;;;;;;;16.30;99.90;;;;;;5037107;28;25074;-57
2023/10/09 09:30:40;;;;;;;;;;;16.40;99.90;;;;;;5037537;28;25174;-58
2023/10/09 09:33:43;;;;;;;;;;;16.40;99.90;;;;;;5037037;28;25082;-57
2023/10/09 09:36:11;;;;;;;;;;;16.30;99.90;;;;;;5036092;28;25053;-57
2023/10/09 09:38:49;;;;;;;;;;;16.40;99.90;;;;;;5037720;28;25118;-58
2023/10/09 09:41:24;;;;;;;;;;;16.40;99.90;;;;;;5034794;28;25117;-59
2023/10/09 09:43:56;;;;;;;;;;;16.40;99.90;;;;;;5069280;28;25076;-56
2023/10/09 09:46:35;;;;;;;;;;;16.50;99.90;;;;;;5036731;28;25081;-57
2023/10/09 09:49:02;;;;;;;;;;;16.50;99.90;;;;;;5030222;28;25060;-58
2023/10/09 09:51:31;;;;;;;;;;;16.50;99.90;;;;;;5035660;28;25133;-58
2023/10/09 09:53:57;;;;;;;;;;;16.60;99.90;;;;;;5035245;28;25101;-57
2023/10/09 09:56:26;;;;;;;;;;;16.70;99.90;;;;;;5034919;28;25076;-56
2023/10/09 09:58:55;;;;;;;;;;;16.70;99.90;;;;;;5036363;28;25139;-57
2023/10/09 10:01:25;;;;;;;;;;;16.70;99.90;;;;;;5036491;28;25083;-57
2023/10/09 10:04:04;;;;;;;;;;;16.80;99.90;;;;;;5028417;28;25104;-59
2023/10/09 10:06:32;;;;;;;;;;;16.80;99.90;;;;;;5028483;28;25074;-57
2023/10/09 10:08:57;;;;;;;;;;;16.70;99.90;;;;;;5036232;28;25088;-54
2023/10/09 10:11:53;;;;;;;;;;;17.20;99.90;;;;;;5036297;28;25093;-55
2023/10/09 10:14:28;;;;;;;;;;;16.70;99.90;;;;;;5042147;28;25096;-54
2023/10/09 10:17:16;;;;;;;;;;;16.80;99.90;;;;;;5031310;28;25083;-52
2023/10/09 10:20:25;;;;;;;;;;;16.80;99.90;;;;;;5036805;28;25089;-54
2023/10/09 10:22:50;;;;;;;;;;;16.80;99.90;;;;;;5036117;28;25106;-54
2023/10/09 10:25:32;;;;;;;;;;;16.80;99.90;;;;;;5036012;28;25128;-54
2023/10/09 10:28:28;;;;;;;;;;;16.80;99.90;;;;;;5036072;28;25115;-54
2023/10/09 10:30:54;;;;;;;;;;;16.80;99.90;;;;;;5035843;28;25109;-54
2023/10/09 10:33:22;;;;;;;;;;;16.80;99.90;;;;;;5036563;28;25092;-51
2023/10/09 10:35:52;;;;;;;;;;;16.80;99.90;;;;;;5038186;28;25063;-54
2023/10/09 10:38:24;;;;;;;;;;;16.80;99.90;;;;;;5036970;28;25108;-54
2023/10/09 10:40:57;;;;;;;;;;;16.80;99.90;;;;;;5035904;28;25108;-54
2023/10/09 10:43:32;;;;;;;;;;;16.80;99.90;;;;;;5037166;28;25086;-54
2023/10/09 10:46:01;;;;;;;;;;;16.70;99.90;;;;;;5036990;28;25109;-55
2023/10/09 10:48:37;;;;;;;;;;;16.80;99.90;;;;;;5036896;28;25087;-54
2023/10/09 10:51:04;;;;;;;;;;;16.80;99.90;;;;;;5037541;28;25119;-55
2023/10/09 10:53:34;;;;;;;;;;;16.80;99.90;;;;;;5035540;28;25070;-54
2023/10/09 10:58:47;;;;;;;;;;;16.90;99.90;;;;;;5036252;28;25082;-55
2023/10/09 11:01:15;;;;;;;;;;;16.90;99.90;;;;;;5036861;28;25112;-51
2023/10/09 11:03:56;;;;;;;;;;;17.00;99.90;;;;;;5036460;28;25075;-55
2023/10/09 11:06:35;;;;;;;;;;;17.00;99.90;;;;;;5034362;28;25070;-53
2023/10/09 11:09:08;;;;;;;;;;;17.00;99.90;;;;;;5036387;28;25206;-53
2023/10/09 11:11:41;;;;;;;;;;;17.10;99.90;;;;;;5034002;28;25079;-54
2023/10/09 11:14:14;;;;;;;;;;;17.00;99.90;;;;;;5035738;28;25105;-53
2023/10/09 11:19:12;;;;;;;;;;;17.00;99.90;;;;;;5035681;28;25083;-54
2023/10/09 11:21:41;;;;;;;;;;;16.90;99.90;;;;;;5033959;28;25141;-54
2023/10/09 11:24:43;;;;;;;;;;;16.90;99.90;;;;;;5035824;28;25079;-54
2023/10/09 11:27:05;;;;;;;;;;;16.80;99.90;;;;;;5034170;28;25067;-51
2023/10/09 11:32:22;;;;;;;;;;;17.20;99.90;;;;;;5035612;28;25115;-52
2023/10/09 11:34:54;;;;;;;;;;;16.90;99.90;;;;;;5036301;28;25131;-53
2023/10/09 11:39:55;;;;;;;;;;;16.90;99.90;;;;;;5034304;28;25059;-53
2023/10/09 11:42:35;;;;;;;;;;;16.90;99.90;;;;;;5036396;28;25071;-54
2023/10/09 11:45:05;;;;;;;;;;;17.20;99.90;;;;;;5034716;28;25066;-51
2023/10/09 11:47:34;;;;;;;;;;;17.00;99.90;;;;;;5034577;28;25073;-55
2023/10/09 11:52:35;;;;;;;;;;;17.10;99.90;;;;;;5034164;28;25104;-53
2023/10/09 11:55:14;;;;;;;;;;;17.10;99.90;;;;;;5034046;28;25067;-54
2023/10/09 11:57:40;;;;;;;;;;;17.10;99.90;;;;;;5033333;28;25161;-54
2023/10/09 12:00:10;;;;;;;;;;;17.20;99.90;;;;;;5034217;28;25068;-55
2023/10/09 12:02:43;;;;;;;;;;;17.30;99.90;;;;;;5035197;28;25145;-55
2023/10/09 12:05:16;;;;;;;;;;;17.40;99.90;;;;;;5034837;28;25113;-55
2023/10/09 12:07:45;;;;;;;;;;;17.50;99.90;;;;;;5035519;28;25103;-59
2023/10/09 12:10:14;;;;;;;;;;;17.60;99.90;;;;;;5035379;28;25119;-59
2023/10/09 12:12:40;;;;;;;;;;;17.50;99.90;;;;;;5034386;28;27108;-59
2023/10/09 12:15:06;;;;;;;;;;;17.60;99.90;;;;;;5036547;28;25139;-58
2023/10/09 12:17:32;;;;;;;;;;;17.70;99.90;;;;;;5036785;28;25051;-58
2023/10/09 12:19:58;;;;;;;;;;;17.80;99.90;;;;;;5040531;28;19950;-57
2023/10/09 12:22:26;;;;;;;;;;;17.70;99.90;;;;;;5033053;28;25066;-58
2023/10/09 12:24:52;;;;;;;;;;;17.70;99.90;;;;;;5032945;28;25081;-58
2023/10/09 12:27:20;;;;;;;;;;;17.50;99.90;;;;;;5035065;28;25063;-58
2023/10/09 12:29:45;;;;;;;;;;;17.50;99.90;;;;;;5033735;28;25065;-59
2023/10/09 12:32:11;;;;;;;;;;;17.40;99.90;;;;;;5036876;28;25072;-58
2023/10/09 12:34:38;;;;;;;;;;;17.30;99.90;;;;;;5039111;28;25084;-58
2023/10/09 12:37:04;;;;;;;;;;;17.30;99.90;;;;;;5037855;28;25149;-59
2023/10/09 12:39:33;;;;;;;;;;;17.30;99.90;;;;;;5038575;28;25150;-59
2023/10/09 12:42:06;;;;;;;;;;;17.30;99.90;;;;;;5038987;28;25071;-58
2023/10/09 12:44:40;;;;;;;;;;;17.30;99.90;;;;;;5038069;28;25094;-59
2023/10/09 12:47:06;;;;;;;;;;;17.20;99.90;;;;;;5036693;28;25079;-59
2023/10/09 12:49:32;;;;;;;;;;;17.40;99.90;;;;;;5039070;28;25048;-59
2023/10/09 12:51:58;;;;;;;;;;;17.20;99.90;;;;;;5038540;28;25083;-57
2023/10/09 12:54:27;;;;;;;;;;;17.10;99.90;;;;;;5037874;28;25130;-59
2023/10/09 12:56:52;;;;;;;;;;;17.10;99.90;;;;;;5037864;28;25065;-58
2023/10/09 12:59:19;;;;;;;;;;;17.20;99.90;;;;;;5037011;28;25088;-59
2023/10/09 13:01:45;;;;;;;;;;;17.00;99.90;;;;;;5037293;28;25103;-57
2023/10/09 13:04:11;;;;;;;;;;;16.90;99.90;;;;;;5038940;28;25110;-64
2023/10/09 13:06:43;;;;;;;;;;;17.40;99.90;;;;;;5037371;28;25059;-59
2023/10/09 13:09:15;;;;;;;;;;;16.80;99.90;;;;;;5037491;28;25077;-58
2023/10/09 13:11:41;;;;;;;;;;;16.90;99.90;;;;;;5038527;28;25075;-56
2023/10/09 13:14:21;;;;;;;;;;;16.80;99.90;;;;;;5036669;28;25086;-54
2023/10/09 13:16:50;;;;;;;;;;;16.80;99.90;;;;;;5038543;28;25071;-59
2023/10/09 13:19:17;;;;;;;;;;;16.80;99.90;;;;;;5037283;28;25086;-60
2023/10/09 13:21:43;;;;;;;;;;;16.80;99.90;;;;;;5036649;28;25079;-59
2023/10/09 13:24:23;;;;;;;;;;;16.80;99.90;;;;;;5036800;28;25080;-59
2023/10/09 13:26:52;;;;;;;;;;;16.80;99.90;;;;;;5038569;28;25083;-59
2023/10/09 13:29:22;;;;;;;;;;;16.80;99.90;;;;;;5037071;28;25149;-59
2023/10/09 13:31:48;;;;;;;;;;;16.80;99.90;;;;;;5037379;28;25084;-59
2023/10/09 13:34:17;;;;;;;;;;;16.80;99.90;;;;;;5037355;28;25110;-59
2023/10/09 13:36:58;;;;;;;;;;;16.80;99.90;;;;;;5037262;28;25241;-59
2023/10/09 13:39:27;;;;;;;;;;;16.70;99.90;;;;;;5036528;28;25098;-57
2023/10/09 13:41:58;;;;;;;;;;;16.70;99.90;;;;;;5036849;28;25108;-58
2023/10/09 13:44:28;;;;;;;;;;;16.70;99.90;;;;;;5036220;28;25066;-58
2023/10/09 13:46:57;;;;;;;;;;;16.80;99.90;;;;;;5035244;28;25074;-57
2023/10/09 13:49:23;;;;;;;;;;;16.70;99.90;;;;;;5037515;28;25064;-57
2023/10/09 13:51:51;;;;;;;;;;;16.70;99.90;;;;;;5038041;28;25086;-57
2023/10/09 13:56:58;;;;;;;;;;;16.70;99.90;;;;;;5037256;28;25087;-57
2023/10/09 13:59:27;;;;;;;;;;;16.80;99.90;;;;;;5038595;28;25076;-57
2023/10/09 14:01:56;;;;;;;;;;;16.80;99.90;;;;;;5035153;28;25091;-57
2023/10/09 14:04:22;;;;;;;;;;;16.80;99.90;;;;;;5037483;28;25091;-57
2023/10/09 14:06:48;;;;;;;;;;;16.80;99.90;;;;;;5038258;28;25079;-57
2023/10/09 14:09:38;;;;;;;;;;;16.80;99.90;;;;;;5037140;28;25089;-58
2023/10/09 14:12:08;;;;;;;;;;;16.80;99.90;;;;;;5035885;28;25137;-55
2023/10/09 14:14:33;;;;;;;;;;;16.80;99.90;;;;;;5037637;28;25085;-53
2023/10/09 14:16:59;;;;;;;;;;;16.80;99.90;;;;;;5038052;28;25077;-56
2023/10/09 14:19:24;;;;;;;;;;;16.80;99.90;;;;;;5027838;28;25017;-56
2023/10/09 14:21:51;;;;;;;;;;;16.80;99.90;;;;;;5037378;28;31126;-56
2023/10/09 14:24:17;;;;;;;;;;;16.80;99.90;;;;;;5035856;28;25073;-55
2023/10/09 14:26:45;;;;;;;;;;;16.80;99.90;;;;;;5036945;28;25170;-56
2023/10/09 14:29:11;;;;;;;;;;;17.20;99.90;;;;;;5037767;28;25114;-55
2023/10/09 14:31:38;;;;;;;;;;;16.80;99.90;;;;;;5036340;28;25091;-55
2023/10/09 14:34:04;;;;;;;;;;;16.80;99.90;;;;;;5036364;28;25065;-55
2023/10/09 14:36:33;;;;;;;;;;;16.90;99.90;;;;;;5027337;28;25086;-56
2023/10/09 14:39:00;;;;;;;;;;;16.90;99.90;;;;;;5033675;28;25154;-56
2023/10/09 14:41:27;;;;;;;;;;;16.90;99.90;;;;;;5035446;28;25080;-55
2023/10/09 14:43:52;;;;;;;;;;;16.90;99.90;;;;;;5036621;28;25168;-55
2023/10/09 14:46:28;;;;;;;;;;;16.90;99.90;;;;;;5035580;28;25070;-55
2023/10/09 14:48:54;;;;;;;;;;;16.90;99.90;;;;;;5036006;28;25062;-56
2023/10/09 14:51:26;;;;;;;;;;;16.90;99.90;;;;;;5037072;28;25057;-55
2023/10/09 14:53:57;;;;;;;;;;;16.90;99.90;;;;;;5035636;28;25111;-55
2023/10/09 14:56:28;;;;;;;;;;;16.90;99.90;;;;;;5035985;28;25065;-55
2023/10/09 14:58:58;;;;;;;;;;;17.00;99.90;;;;;;5035642;28;25074;-55
2023/10/09 15:01:25;;;;;;;;;;;17.00;99.90;;;;;;5036820;28;25129;-56
2023/10/09 15:03:54;;;;;;;;;;;17.50;99.90;;;;;;5037122;28;25129;-54
2023/10/09 15:06:20;;;;;;;;;;;17.10;99.90;;;;;;5037248;28;25069;-55
2023/10/09 15:08:46;;;;;;;;;;;17.20;99.90;;;;;;5036951;28;25078;-55
2023/10/09 15:11:12;;;;;;;;;;;17.20;99.90;;;;;;5036470;28;25165;-55
2023/10/09 15:13:39;;;;;;;;;;;17.20;99.90;;;;;;5037714;28;25074;-56
2023/10/09 15:16:04;;;;;;;;;;;17.20;99.90;;;;;;5036469;28;25101;-55
2023/10/09 15:18:33;;;;;;;;;;;17.10;99.90;;;;;;5037419;28;25149;-55
2023/10/09 15:20:59;;;;;;;;;;;17.10;99.90;;;;;;5036207;28;25119;-55
2023/10/09 15:23:25;;;;;;;;;;;17.10;99.90;;;;;;5037919;28;25089;-56
2023/10/09 15:25:51;;;;;;;;;;;17.00;99.90;;;;;;5036400;28;25096;-55
2023/10/09 15:28:19;;;;;;;;;;;17.30;99.90;;;;;;5038486;28;25109;-55
2023/10/09 15:30:47;;;;;;;;;;;17.00;99.90;;;;;;5037442;28;25086;-55
2023/10/09 15:33:19;;;;;;;;;;;17.00;99.90;;;;;;5037446;28;25116;-55
2023/10/09 15:35:46;;;;;;;;;;;16.90;99.90;;;;;;5037778;28;20560;-55
2023/10/09 15:38:13;;;;;;;;;;;16.90;99.90;;;;;;5039167;28;19925;-54
2023/10/09 15:40:41;;;;;;;;;;;16.80;99.90;;;;;;5032127;28;25111;-55
2023/10/09 15:43:06;;;;;;;;;;;16.80;99.90;;;;;;5031958;28;25084;-54
2023/10/09 15:45:40;;;;;;;;;;;16.90;99.90;;;;;;5034387;28;25083;-55
2023/10/09 15:48:06;;;;;;;;;;;16.80;99.90;;;;;;5033749;28;25111;-55
2023/10/09 15:50:34;;;;;;;;;;;16.80;99.90;;;;;;5033199;28;25096;-54
2023/10/09 15:52:59;;;;;;;;;;;16.80;99.90;;;;;;5032603;28;25082;-52
2023/10/09 15:55:25;;;;;;;;;;;16.80;99.90;;;;;;5034064;28;25152;-55
2023/10/09 15:57:54;;;;;;;;;;;16.80;99.90;;;;;;5035645;28;25062;-55
2023/10/09 16:00:20;;;;;;;;;;;16.80;99.90;;;;;;5034888;28;25063;-55
2023/10/09 16:02:47;;;;;;;;;;;16.80;99.90;;;;;;5034054;28;25070;-60
2023/10/09 16:05:13;;;;;;;;;;;16.80;99.90;;;;;;5033749;28;25086;-55
2023/10/09 16:07:39;;;;;;;;;;;16.70;99.90;;;;;;5034813;28;25079;-55
2023/10/09 16:10:08;;;;;;;;;;;16.70;99.90;;;;;;5034065;28;25078;-55
2023/10/09 16:12:38;;;;;;;;;;;16.70;99.90;;;;;;5034327;28;28108;-55
2023/10/09 16:15:04;;;;;;;;;;;16.70;99.90;;;;;;5034635;28;25064;-56
2023/10/09 16:17:33;;;;;;;;;;;16.60;99.90;;;;;;5034970;28;25073;-56
2023/10/09 16:20:02;;;;;;;;;;;16.60;99.90;;;;;;5034446;28;25075;-55
2023/10/09 16:22:32;;;;;;;;;;;16.60;99.90;;;;;;5035667;28;25068;-55
2023/10/09 16:24:59;;;;;;;;;;;16.60;99.90;;;;;;5033943;28;25085;-56
2023/10/09 16:27:25;;;;;;;;;;;16.50;99.90;;;;;;5035020;28;25073;-54
2023/10/09 16:29:51;;;;;;;;;;;16.50;99.90;;;;;;5035345;28;25570;-54
2023/10/09 16:32:23;;;;;;;;;;;16.50;99.90;;;;;;5034419;28;28138;-55
2023/10/09 16:34:49;;;;;;;;;;;16.50;99.90;;;;;;5034490;28;25073;-55
2023/10/09 16:37:16;;;;;;;;;;;16.50;99.90;;;;;;5034561;28;25173;-55
2023/10/09 16:39:41;;;;;;;;;;;16.50;99.90;;;;;;5034028;28;25164;-54
2023/10/09 16:42:09;;;;;;;;;;;16.40;99.90;;;;;;5033059;28;25092;-56
2023/10/09 16:44:36;;;;;;;;;;;16.40;99.90;;;;;;5034017;28;25139;-55
2023/10/09 16:47:05;;;;;;;;;;;16.40;99.90;;;;;;5035066;28;25071;-55
2023/10/09 16:49:31;;;;;;;;;;;16.40;99.90;;;;;;5034119;28;25067;-54
2023/10/09 16:51:57;;;;;;;;;;;16.30;99.90;;;;;;5034758;28;25064;-55
2023/10/09 16:54:23;;;;;;;;;;;16.30;99.90;;;;;;5033961;28;25090;-55
2023/10/09 16:56:51;;;;;;;;;;;16.30;99.90;;;;;;5035107;28;25072;-55
2023/10/09 16:59:16;;;;;;;;;;;16.30;99.90;;;;;;5026179;28;25164;-54